Time;durP1;ratioP1;P1;durP2;ratioP2;P2;SDS_P1;SDS_P2;PMS_P1;PMS_P2;Temp;Humidity;BMP_temperature;BMP_pressure;BME280_temperature;BME280_humidity;BME280_pressure;Samples;Min_cycle;Max_cycle;Signal;HPM_P1;HPM_P2
2023/07/08 07:39:21;;;;;;;1.45;1.35;;;;;;;;;;5114495;23;20693;-69
2023/07/08 07:41:51;;;;;;;1.48;1.38;;;;;;;;;;4975178;28;20210;-70
2023/07/08 07:44:22;;;;;;;1.20;1.20;;;;;;;;;;4975394;28;20187;-70
2023/07/08 07:46:52;;;;;;;2.53;1.15;;;;;;;;;;4975374;28;20191;-70
2023/07/08 07:49:22;;;;;;;1.15;1.05;;;;;;;;;;4975324;28;20226;-70
2023/07/08 07:52:25;;;;;;;0.90;0.90;;;;;;;;;;4975925;28;20187;-68
2023/07/08 07:55:38;;;;;;;1.75;1.10;;;;;;;;;;4975362;28;20217;-68
2023/07/08 07:58:21;;;;;;;0.90;0.90;;;;;;;;;;4975310;28;20229;-68
2023/07/08 08:00:52;;;;;;;0.90;0.90;;;;;;;;;;4975511;28;20187;-68
2023/07/08 08:03:21;;;;;;;0.90;0.90;;;;;;;;;;4975149;28;20187;-68
2023/07/08 08:05:51;;;;;;;0.75;0.75;;;;;;;;;;4975188;28;20565;-68
2023/07/08 08:08:25;;;;;;;0.82;0.73;;;;;;;;;;4975025;28;20313;-67
2023/07/08 08:11:01;;;;;;;1.80;0.95;;;;;;;;;;4975043;28;20194;-68
2023/07/08 08:13:35;;;;;;;1.83;1.00;;;;;;;;;;4974984;28;20198;-68
2023/07/08 08:16:09;;;;;;;0.80;0.80;;;;;;;;;;4975166;28;20207;-68
2023/07/08 08:18:55;;;;;;;0.85;0.85;;;;;;;;;;4975573;28;20229;-68
2023/07/08 08:21:44;;;;;;;0.80;0.80;;;;;;;;;;4975796;28;20191;-68
2023/07/08 08:24:35;;;;;;;1.15;1.10;;;;;;;;;;4976329;28;20194;-68
2023/07/08 08:27:10;;;;;;;1.00;0.90;;;;;;;;;;4976537;28;20179;-67
2023/07/08 08:29:47;;;;;;;0.77;0.75;;;;;;;;;;4975312;28;20183;-68
2023/07/08 08:32:15;;;;;;;0.82;0.82;;;;;;;;;;4974928;28;20195;-68
2023/07/08 08:34:42;;;;;;;1.20;1.10;;;;;;;;;;4974945;28;20199;-68
2023/07/08 08:37:09;;;;;;;0.82;0.82;;;;;;;;;;4974773;28;20566;-67
2023/07/08 08:39:36;;;;;;;0.90;0.90;;;;;;;;;;4974711;28;20218;-67
2023/07/08 08:42:05;;;;;;;0.80;0.80;;;;;;;;;;4974241;28;20214;-67
2023/07/08 08:44:34;;;;;;;0.75;0.75;;;;;;;;;;4974613;28;20206;-67
2023/07/08 08:47:05;;;;;;;0.90;0.90;;;;;;;;;;4974296;28;20551;-67
2023/07/08 08:49:34;;;;;;;0.70;0.70;;;;;;;;;;4974515;28;20233;-67
2023/07/08 08:52:01;;;;;;;0.90;0.90;;;;;;;;;;4977583;28;20203;-67
2023/07/08 08:54:28;;;;;;;0.88;0.88;;;;;;;;;;4978509;28;20218;-68
2023/07/08 08:57:01;;;;;;;0.90;0.90;;;;;;;;;;4978481;28;20207;-68
2023/07/08 08:59:35;;;;;;;0.68;0.68;;;;;;;;;;4978277;28;20234;-68
2023/07/08 09:02:02;;;;;;;0.93;0.93;;;;;;;;;;4978405;28;20190;-68
2023/07/08 09:04:31;;;;;;;1.08;1.08;;;;;;;;;;4978279;28;20209;-68
2023/07/08 09:07:01;;;;;;;1.23;1.10;;;;;;;;;;4978309;28;20202;-68
2023/07/08 09:09:31;;;;;;;1.27;1.17;;;;;;;;;;4978242;28;20227;-68
2023/07/08 09:12:01;;;;;;;1.05;1.00;;;;;;;;;;4978259;28;20206;-69
2023/07/08 09:14:30;;;;;;;0.85;0.85;;;;;;;;;;4978467;28;20203;-69
2023/07/08 09:17:00;;;;;;;0.95;0.95;;;;;;;;;;4978194;28;20210;-68
2023/07/08 09:19:30;;;;;;;1.00;1.00;;;;;;;;;;4978558;28;20227;-68
2023/07/08 09:22:00;;;;;;;1.48;1.20;;;;;;;;;;4978030;28;20210;-68
2023/07/08 09:24:31;;;;;;;0.98;0.98;;;;;;;;;;4978283;28;20188;-69
2023/07/08 09:27:00;;;;;;;1.20;1.20;;;;;;;;;;4978486;28;20202;-69
2023/07/08 09:29:27;;;;;;;1.10;1.10;;;;;;;;;;4977955;28;20227;-70
2023/07/08 09:31:56;;;;;;;1.00;0.90;;;;;;;;;;4977715;28;20748;-69
2023/07/08 09:34:24;;;;;;;0.98;0.98;;;;;;;;;;4977862;28;20214;-69
2023/07/08 09:36:52;;;;;;;0.82;0.80;;;;;;;;;;4977994;28;20187;-69
2023/07/08 09:39:21;;;;;;;1.13;1.13;;;;;;;;;;4978005;28;20223;-68
2023/07/08 09:41:49;;;;;;;1.10;1.10;;;;;;;;;;4977723;28;20265;-68
2023/07/08 09:44:25;;;;;;;1.02;1.02;;;;;;;;;;4977549;28;20213;-68
2023/07/08 09:46:52;;;;;;;0.80;0.80;;;;;;;;;;4977689;28;20226;-68
2023/07/08 09:49:25;;;;;;;1.00;1.00;;;;;;;;;;4977222;28;20710;-67
2023/07/08 09:51:53;;;;;;;1.00;1.00;;;;;;;;;;4977551;28;20203;-67
2023/07/08 09:54:21;;;;;;;1.02;1.02;;;;;;;;;;4977566;28;20210;-69
2023/07/08 09:56:52;;;;;;;0.85;0.85;;;;;;;;;;4977543;28;20206;-68
2023/07/08 09:59:31;;;;;;;0.98;0.93;;;;;;;;;;4977287;28;20231;-68
2023/07/08 10:01:58;;;;;;;0.80;0.80;;;;;;;;;;4976947;28;20250;-69
2023/07/08 10:04:26;;;;;;;0.73;0.73;;;;;;;;;;4977308;28;20222;-69
2023/07/08 10:06:55;;;;;;;1.20;1.20;;;;;;;;;;4977299;28;20207;-67
2023/07/08 10:09:26;;;;;;;0.93;0.93;;;;;;;;;;4977131;28;20219;-69
2023/07/08 10:11:55;;;;;;;0.80;0.80;;;;;;;;;;4977414;28;20187;-68
2023/07/08 10:14:26;;;;;;;0.85;0.85;;;;;;;;;;4977445;28;20203;-68
2023/07/08 10:16:53;;;;;;;1.00;1.00;;;;;;;;;;4977291;28;20191;-68
2023/07/08 10:19:21;;;;;;;0.90;0.90;;;;;;;;;;4976893;28;20227;-68
2023/07/08 10:21:54;;;;;;;1.23;1.00;;;;;;;;;;4976986;28;20541;-69
2023/07/08 10:24:27;;;;;;;1.25;1.25;;;;;;;;;;4976906;28;20187;-68
2023/07/08 10:26:56;;;;;;;0.90;0.90;;;;;;;;;;4977635;28;20187;-68
2023/07/08 10:29:26;;;;;;;1.20;1.20;;;;;;;;;;4976801;28;20226;-68
2023/07/08 10:31:58;;;;;;;1.30;1.20;;;;;;;;;;4976435;28;20210;-68
2023/07/08 10:34:38;;;;;;;0.82;0.82;;;;;;;;;;4976707;28;20194;-68
2023/07/08 10:37:11;;;;;;;0.90;0.90;;;;;;;;;;4976842;28;20266;-68
2023/07/08 10:39:45;;;;;;;1.10;1.00;;;;;;;;;;4976590;28;20211;-68
2023/07/08 10:42:18;;;;;;;1.55;1.40;;;;;;;;;;4976657;28;20188;-67
2023/07/08 10:44:52;;;;;;;1.40;1.30;;;;;;;;;;4976268;28;20658;-68
2023/07/08 10:47:26;;;;;;;0.90;0.90;;;;;;;;;;4976699;28;20191;-68
2023/07/08 10:49:58;;;;;;;1.45;1.23;;;;;;;;;;4976133;28;20190;-68
2023/07/08 10:52:33;;;;;;;1.60;1.50;;;;;;;;;;4976483;28;20195;-69
2023/07/08 10:55:08;;;;;;;1.20;1.10;;;;;;;;;;4976434;28;20191;-67
2023/07/08 10:57:46;;;;;;;1.30;1.30;;;;;;;;;;4976016;28;20224;-69
2023/07/08 16:06:41;;;;;;;1.90;1.80;;;;;;;;;;5021617;23;20230;-73
2023/07/08 16:09:09;;;;;;;1.80;1.70;;;;;;;;;;4978019;28;20211;-73
2023/07/08 16:11:36;;;;;;;1.77;1.67;;;;;;;;;;4979360;28;20666;-74
2023/07/08 16:14:04;;;;;;;1.27;1.27;;;;;;;;;;4979198;28;20203;-73
2023/07/08 16:16:31;;;;;;;1.77;1.70;;;;;;;;;;4979186;28;20223;-73
2023/07/08 16:18:59;;;;;;;2.08;1.40;;;;;;;;;;4978899;28;20309;-71
2023/07/08 16:21:26;;;;;;;1.50;1.50;;;;;;;;;;4979286;28;20206;-72
2023/07/08 16:23:55;;;;;;;1.30;1.30;;;;;;;;;;4978395;28;20218;-73
2023/07/08 16:26:22;;;;;;;1.92;1.83;;;;;;;;;;4978767;28;20219;-72
2023/07/08 16:28:50;;;;;;;1.30;1.30;;;;;;;;;;4979166;28;20203;-72
2023/07/08 16:31:19;;;;;;;1.85;1.75;;;;;;;;;;4979908;28;20187;-73
2023/07/08 16:33:46;;;;;;;2.15;2.05;;;;;;;;;;4998721;23;20238;-68
2023/07/08 16:36:14;;;;;;;2.08;1.98;;;;;;;;;;4974808;28;20206;-69
2023/07/08 16:38:42;;;;;;;1.70;1.60;;;;;;;;;;4974399;28;20215;-67
2023/07/08 16:41:12;;;;;;;1.58;1.58;;;;;;;;;;4974742;28;20242;-67
2023/07/08 16:43:40;;;;;;;1.40;1.40;;;;;;;;;;4974685;28;20255;-67
2023/07/08 16:46:07;;;;;;;1.10;1.10;;;;;;;;;;4974962;28;20226;-67
2023/07/08 16:48:34;;;;;;;1.23;1.23;;;;;;;;;;4976505;28;20215;-67
2023/07/08 16:51:01;;;;;;;2.03;1.33;;;;;;;;;;4976361;28;20214;-68
2023/07/08 16:53:28;;;;;;;1.67;1.58;;;;;;;;;;4975943;28;20218;-67
2023/07/08 16:55:55;;;;;;;1.65;1.55;;;;;;;;;;4975358;28;20266;-68
2023/07/08 16:58:23;;;;;;;1.83;1.73;;;;;;;;;;4974860;28;20210;-68
2023/07/08 17:00:51;;;;;;;1.38;1.38;;;;;;;;;;4975161;28;20231;-68
2023/07/08 17:03:18;;;;;;;1.30;1.30;;;;;;;;;;4974479;28;20226;-68
2023/07/08 17:05:45;;;;;;;1.50;1.50;;;;;;;;;;4974463;28;20199;-68
2023/07/08 17:08:14;;;;;;;1.23;1.23;;;;;;;;;;4974382;28;20215;-67
2023/07/08 17:10:41;;;;;;;1.58;1.48;;;;;;;;;;4974732;28;20218;-67
2023/07/08 17:13:08;;;;;;;1.83;1.73;;;;;;;;;;4977446;28;20238;-67
2023/07/08 17:15:36;;;;;;;1.60;1.50;;;;;;;;;;4978268;28;20203;-67
2023/07/08 17:18:06;;;;;;;1.55;1.55;;;;;;;;;;4977802;28;20693;-67
2023/07/08 17:20:34;;;;;;;1.80;1.70;;;;;;;;;;4978062;28;20237;-67
2023/07/08 17:23:02;;;;;;;1.38;1.38;;;;;;;;;;4977609;28;20729;-67
2023/07/08 17:25:29;;;;;;;1.45;1.45;;;;;;;;;;4978715;28;20210;-67
2023/07/08 17:27:57;;;;;;;1.83;1.45;;;;;;;;;;4977649;28;20202;-67
2023/07/08 17:30:24;;;;;;;2.03;1.50;;;;;;;;;;4977892;28;20255;-67
2023/07/08 17:32:54;;;;;;;1.48;1.42;;;;;;;;;;4977606;28;20242;-68
2023/07/08 17:35:22;;;;;;;1.40;1.40;;;;;;;;;;4977451;28;20599;-68
2023/07/08 17:37:49;;;;;;;1.98;1.80;;;;;;;;;;4977660;28;20199;-68
2023/07/08 17:40:17;;;;;;;1.42;1.33;;;;;;;;;;4977798;28;20223;-68
2023/07/08 17:42:44;;;;;;;1.65;1.55;;;;;;;;;;4977553;28;20230;-68
2023/07/08 17:45:11;;;;;;;1.52;1.52;;;;;;;;;;4977377;28;20675;-68
2023/07/08 17:47:39;;;;;;;1.70;1.60;;;;;;;;;;4977749;28;20207;-68
2023/07/08 17:50:14;;;;;;;1.95;1.40;;;;;;;;;;4977746;28;20192;-68
2023/07/08 17:52:41;;;;;;;1.90;1.80;;;;;;;;;;4979709;28;20229;-69
2023/07/08 17:55:09;;;;;;;1.60;1.60;;;;;;;;;;4983642;28;20577;-69
2023/07/08 17:57:36;;;;;;;1.75;1.65;;;;;;;;;;4984717;28;20207;-68
2023/07/08 18:00:05;;;;;;;1.58;1.48;;;;;;;;;;4982625;28;20698;-68
2023/07/08 18:02:32;;;;;;;1.85;1.75;;;;;;;;;;4977456;28;20269;-68
2023/07/08 18:04:59;;;;;;;1.70;1.70;;;;;;;;;;4977182;28;20211;-68
2023/07/08 18:07:27;;;;;;;1.77;1.70;;;;;;;;;;4976937;28;20666;-68
2023/07/08 18:09:54;;;;;;;1.63;1.52;;;;;;;;;;4977040;28;20203;-68
2023/07/08 18:12:21;;;;;;;1.50;1.50;;;;;;;;;;4977447;28;20231;-68
2023/07/08 18:14:48;;;;;;;1.50;1.50;;;;;;;;;;4976542;28;20214;-68
2023/07/08 18:17:15;;;;;;;1.67;1.58;;;;;;;;;;4976861;28;20214;-68
2023/07/08 18:19:42;;;;;;;1.85;1.75;;;;;;;;;;4976864;28;20226;-68
2023/07/08 18:22:11;;;;;;;1.77;1.58;;;;;;;;;;4976644;28;20261;-68
2023/07/08 18:24:39;;;;;;;1.52;1.42;;;;;;;;;;4976776;28;20252;-68
2023/07/08 18:27:06;;;;;;;1.40;1.40;;;;;;;;;;4976620;28;20206;-68
2023/07/08 18:29:33;;;;;;;1.90;1.75;;;;;;;;;;4976370;28;20685;-66
2023/07/08 18:32:00;;;;;;;1.60;1.60;;;;;;;;;;4976202;28;20214;-68
2023/07/08 18:34:27;;;;;;;1.60;1.55;;;;;;;;;;4976797;28;20217;-68
2023/07/08 18:36:54;;;;;;;1.60;1.52;;;;;;;;;;4976802;28;20243;-68
2023/07/08 18:39:21;;;;;;;1.70;1.60;;;;;;;;;;4976397;28;20234;-68
2023/07/08 18:41:50;;;;;;;1.50;1.50;;;;;;;;;;4976176;28;20666;-68
2023/07/08 18:44:21;;;;;;;1.80;1.70;;;;;;;;;;4976386;28;20222;-68
2023/07/08 18:46:48;;;;;;;1.60;1.50;;;;;;;;;;4976069;28;20191;-68
2023/07/08 18:49:15;;;;;;;1.85;1.75;;;;;;;;;;4976336;28;20203;-68
2023/07/08 18:51:43;;;;;;;1.73;1.65;;;;;;;;;;4976308;28;20211;-68
2023/07/08 18:54:14;;;;;;;1.35;1.25;;;;;;;;;;4975826;28;20661;-68
2023/07/08 18:56:41;;;;;;;1.92;1.80;;;;;;;;;;4976282;28;20218;-68
2023/07/08 18:59:10;;;;;;;1.70;1.60;;;;;;;;;;4976323;28;20210;-68
2023/07/08 19:01:38;;;;;;;2.28;2.17;;;;;;;;;;4975855;28;20666;-68
2023/07/08 19:04:06;;;;;;;1.70;1.60;;;;;;;;;;4976185;28;20230;-68
2023/07/08 19:06:33;;;;;;;1.58;1.58;;;;;;;;;;4976341;28;20207;-68
2023/07/08 19:09:00;;;;;;;1.67;1.65;;;;;;;;;;4976276;28;20206;-68
2023/07/08 19:11:28;;;;;;;1.58;1.58;;;;;;;;;;4975938;28;20207;-68
2023/07/08 19:13:55;;;;;;;1.65;1.55;;;;;;;;;;4976061;28;20242;-68
2023/07/08 19:16:23;;;;;;;1.88;1.77;;;;;;;;;;4975961;28;20207;-68
2023/07/08 19:18:50;;;;;;;1.52;1.52;;;;;;;;;;4976476;28;20214;-68
2023/07/08 19:21:19;;;;;;;2.03;1.92;;;;;;;;;;4975715;28;20233;-68
2023/07/08 19:23:47;;;;;;;1.92;1.83;;;;;;;;;;4975684;28;20589;-69
2023/07/08 19:26:15;;;;;;;1.50;1.50;;;;;;;;;;4975404;28;20707;-68
2023/07/08 19:28:43;;;;;;;1.67;1.60;;;;;;;;;;4975623;28;20209;-67
2023/07/08 19:31:14;;;;;;;1.88;1.70;;;;;;;;;;4975681;28;20294;-67
2023/07/08 19:33:42;;;;;;;1.50;1.50;;;;;;;;;;4975131;28;20601;-67
2023/07/08 19:36:09;;;;;;;1.63;1.63;;;;;;;;;;4974972;28;20203;-67
2023/07/08 19:38:36;;;;;;;1.70;1.60;;;;;;;;;;4975161;28;20670;-67
2023/07/08 19:41:04;;;;;;;2.00;1.58;;;;;;;;;;4975266;28;20229;-67
2023/07/08 19:43:31;;;;;;;2.00;1.90;;;;;;;;;;4975014;28;20230;-67
2023/07/08 19:45:58;;;;;;;2.03;1.88;;;;;;;;;;4975317;28;20609;-67
2023/07/08 19:48:25;;;;;;;1.90;1.80;;;;;;;;;;4975347;28;20214;-67
2023/07/08 19:50:53;;;;;;;1.70;1.67;;;;;;;;;;4975204;28;20195;-67
2023/07/08 19:53:20;;;;;;;1.40;1.40;;;;;;;;;;4975035;28;20223;-67
2023/07/08 19:55:47;;;;;;;2.10;2.00;;;;;;;;;;4975743;28;20207;-67
2023/07/08 19:58:14;;;;;;;1.55;1.52;;;;;;;;;;4974950;28;20567;-67
2023/07/08 20:00:43;;;;;;;1.98;1.88;;;;;;;;;;4974645;28;20222;-67
2023/07/08 20:03:11;;;;;;;1.40;1.40;;;;;;;;;;4974888;28;20245;-67
2023/07/08 20:05:39;;;;;;;1.70;1.70;;;;;;;;;;4974682;28;20602;-67
2023/07/08 20:08:13;;;;;;;2.63;1.77;;;;;;;;;;4974867;28;20206;-67
2023/07/08 20:10:40;;;;;;;1.70;1.60;;;;;;;;;;4974921;28;20189;-67
2023/07/08 20:13:09;;;;;;;1.80;1.80;;;;;;;;;;4974789;28;20231;-67
2023/07/08 20:15:38;;;;;;;1.92;1.83;;;;;;;;;;4974846;28;20202;-67
2023/07/08 20:18:05;;;;;;;1.50;1.50;;;;;;;;;;4974837;28;20210;-67
2023/07/08 20:20:33;;;;;;;1.52;1.52;;;;;;;;;;4974710;28;20253;-67
2023/07/08 20:23:01;;;;;;;1.80;1.70;;;;;;;;;;4974469;28;20697;-67
2023/07/08 20:25:29;;;;;;;1.98;1.88;;;;;;;;;;4974673;28;20257;-67
2023/07/08 20:27:56;;;;;;;1.60;1.60;;;;;;;;;;4974714;28;20287;-67
2023/07/08 20:30:25;;;;;;;1.75;1.70;;;;;;;;;;4974619;28;20319;-67
2023/07/08 20:32:52;;;;;;;1.55;1.55;;;;;;;;;;4974233;28;20649;-66
2023/07/08 20:35:21;;;;;;;1.50;1.50;;;;;;;;;;4974922;28;20199;-66
2023/07/08 20:37:48;;;;;;;1.80;1.80;;;;;;;;;;4974519;28;20206;-66
2023/07/08 20:40:19;;;;;;;1.35;1.35;;;;;;;;;;4974500;28;20246;-66
2023/07/08 20:42:47;;;;;;;1.73;1.63;;;;;;;;;;4974900;28;20233;-66
2023/07/08 20:45:15;;;;;;;1.98;1.95;;;;;;;;;;4974640;28;20206;-67
2023/07/08 20:47:46;;;;;;;1.90;1.80;;;;;;;;;;4978732;28;20214;-67
2023/07/08 20:50:17;;;;;;;1.88;1.77;;;;;;;;;;4978653;28;20226;-67
2023/07/08 20:52:45;;;;;;;1.45;1.45;;;;;;;;;;4978507;28;20226;-67
2023/07/08 20:55:12;;;;;;;2.03;1.92;;;;;;;;;;4978570;28;20209;-66
2023/07/08 20:57:40;;;;;;;1.60;1.60;;;;;;;;;;4978461;28;20203;-66
2023/07/08 21:00:20;;;;;;;1.83;1.73;;;;;;;;;;4978327;28;20225;-66
2023/07/08 21:02:47;;;;;;;1.60;1.60;;;;;;;;;;4978355;28;20230;-66
2023/07/08 21:05:14;;;;;;;1.88;1.75;;;;;;;;;;4978311;28;20203;-66
2023/07/08 21:07:42;;;;;;;1.70;1.70;;;;;;;;;;4978251;28;20198;-66
2023/07/08 21:10:14;;;;;;;1.90;1.80;;;;;;;;;;4978148;28;20206;-66
2023/07/08 21:12:41;;;;;;;1.30;1.30;;;;;;;;;;4978499;28;20227;-66
2023/07/08 21:15:10;;;;;;;1.95;1.95;;;;;;;;;;4978296;28;20199;-66
2023/07/08 21:17:39;;;;;;;1.75;1.65;;;;;;;;;;4978212;28;20542;-68
2023/07/08 21:20:11;;;;;;;2.00;1.80;;;;;;;;;;4978331;28;20349;-66
2023/07/08 21:22:39;;;;;;;2.40;2.30;;;;;;;;;;4978544;28;20285;-67
2023/07/08 21:25:06;;;;;;;1.95;1.85;;;;;;;;;;4978105;28;20203;-66
2023/07/08 21:27:33;;;;;;;1.58;1.55;;;;;;;;;;4977843;28;20246;-66
2023/07/08 21:30:00;;;;;;;1.60;1.60;;;;;;;;;;4977313;28;20195;-66
2023/07/08 21:32:28;;;;;;;1.90;1.80;;;;;;;;;;4977490;28;20235;-66
2023/07/08 21:34:55;;;;;;;1.77;1.70;;;;;;;;;;4977777;28;20274;-66
2023/07/08 21:37:22;;;;;;;1.80;1.77;;;;;;;;;;4977797;28;20613;-66
2023/07/08 21:39:49;;;;;;;2.00;1.90;;;;;;;;;;4977648;28;20611;-66
2023/07/08 21:42:17;;;;;;;2.17;1.95;;;;;;;;;;4977894;28;20207;-67
2023/07/08 21:44:44;;;;;;;2.10;2.00;;;;;;;;;;4977829;28;20257;-67
2023/07/08 21:47:11;;;;;;;1.90;1.70;;;;;;;;;;4977570;28;20203;-66
2023/07/08 21:49:39;;;;;;;2.03;1.95;;;;;;;;;;4977270;28;20574;-66
2023/07/08 21:52:06;;;;;;;1.85;1.75;;;;;;;;;;4977876;28;20203;-66
2023/07/08 21:54:33;;;;;;;2.35;2.25;;;;;;;;;;4977788;28;20203;-67
2023/07/08 21:57:00;;;;;;;2.10;2.00;;;;;;;;;;4977140;28;20207;-66
2023/07/08 21:59:27;;;;;;;1.92;1.83;;;;;;;;;;4977038;28;20671;-66
2023/07/08 22:01:54;;;;;;;2.33;2.22;;;;;;;;;;4977537;28;20226;-66
2023/07/08 22:04:22;;;;;;;1.63;1.60;;;;;;;;;;4977600;28;20234;-66
2023/07/08 22:06:52;;;;;;;2.25;2.13;;;;;;;;;;4984195;28;20226;-66
2023/07/08 22:09:19;;;;;;;1.92;1.88;;;;;;;;;;4986572;28;20187;-66
2023/07/08 22:11:47;;;;;;;2.58;2.38;;;;;;;;;;4985868;28;20233;-67
2023/07/08 22:14:14;;;;;;;1.98;1.88;;;;;;;;;;4978073;28;20258;-67
2023/07/08 22:16:41;;;;;;;2.42;2.33;;;;;;;;;;4977148;28;20199;-65
2023/07/08 22:19:08;;;;;;;2.10;2.00;;;;;;;;;;4977126;28;20211;-66
2023/07/08 22:21:35;;;;;;;2.45;2.35;;;;;;;;;;4977098;28;20226;-66
2023/07/08 22:24:05;;;;;;;2.53;2.33;;;;;;;;;;4976976;28;20254;-66
2023/07/08 22:26:34;;;;;;;1.90;1.90;;;;;;;;;;4977033;28;20207;-67
2023/07/08 22:29:02;;;;;;;1.95;1.85;;;;;;;;;;4976945;28;20204;-66
2023/07/08 22:31:31;;;;;;;2.08;1.98;;;;;;;;;;4976561;28;20200;-66
2023/07/08 22:33:59;;;;;;;2.20;2.10;;;;;;;;;;4977327;28;20282;-66
2023/07/08 22:36:26;;;;;;;2.45;2.35;;;;;;;;;;4976782;28;20613;-66
2023/07/08 22:38:59;;;;;;;2.30;2.20;;;;;;;;;;4976832;28;20210;-66
2023/07/08 22:41:28;;;;;;;2.25;2.15;;;;;;;;;;4976626;28;20318;-67
2023/07/08 22:43:55;;;;;;;1.77;1.77;;;;;;;;;;4976662;28;20223;-67
2023/07/08 22:46:23;;;;;;;2.47;2.28;;;;;;;;;;4976893;28;20250;-67
2023/07/08 22:48:57;;;;;;;2.15;2.05;;;;;;;;;;4976812;28;20211;-67
2023/07/08 22:51:25;;;;;;;2.25;2.15;;;;;;;;;;4976994;28;20275;-66
2023/07/08 22:53:52;;;;;;;2.13;2.03;;;;;;;;;;4976484;28;20781;-66
2023/07/08 22:56:20;;;;;;;2.53;2.42;;;;;;;;;;4976728;28;20204;-66
2023/07/08 22:58:48;;;;;;;2.83;2.67;;;;;;;;;;4976257;28;20661;-66
2023/07/08 23:01:17;;;;;;;2.60;2.50;;;;;;;;;;4976485;28;20574;-67
2023/07/08 23:03:44;;;;;;;2.53;2.42;;;;;;;;;;4976242;28;20773;-66
2023/07/08 23:06:12;;;;;;;2.63;2.47;;;;;;;;;;4976228;28;20207;-67
2023/07/08 23:08:42;;;;;;;2.38;2.22;;;;;;;;;;4975942;28;20203;-67
2023/07/08 23:11:13;;;;;;;2.72;2.53;;;;;;;;;;4975874;28;20207;-67
2023/07/08 23:13:41;;;;;;;2.40;2.30;;;;;;;;;;4976091;28;20227;-68
2023/07/08 23:16:20;;;;;;;2.45;2.35;;;;;;;;;;4976107;28;20304;-67
2023/07/08 23:18:48;;;;;;;2.60;2.50;;;;;;;;;;4976080;28;20192;-66
2023/07/08 23:21:15;;;;;;;2.45;2.35;;;;;;;;;;4975547;28;20230;-67
2023/07/08 23:23:42;;;;;;;2.40;2.22;;;;;;;;;;4975897;28;20220;-66
2023/07/08 23:26:12;;;;;;;2.35;2.25;;;;;;;;;;4975913;28;20203;-67
2023/07/08 23:28:39;;;;;;;2.42;2.33;;;;;;;;;;4975825;28;20203;-66
2023/07/08 23:31:06;;;;;;;2.90;2.70;;;;;;;;;;4975806;28;20250;-66
2023/07/08 23:33:34;;;;;;;2.50;2.40;;;;;;;;;;4976064;28;20231;-66
2023/07/08 23:36:01;;;;;;;2.50;2.40;;;;;;;;;;4975765;28;20204;-68
2023/07/08 23:38:29;;;;;;;2.50;2.30;;;;;;;;;;4976051;28;20211;-68
2023/07/08 23:40:56;;;;;;;2.58;2.38;;;;;;;;;;4975361;28;20228;-68
2023/07/08 23:43:23;;;;;;;2.80;2.65;;;;;;;;;;4975707;28;20231;-68
2023/07/08 23:45:51;;;;;;;3.03;2.83;;;;;;;;;;4975609;28;20226;-68
2023/07/08 23:48:18;;;;;;;2.70;2.60;;;;;;;;;;4975242;28;20203;-68
2023/07/08 23:50:47;;;;;;;2.40;2.30;;;;;;;;;;4975693;28;20199;-67
2023/07/08 23:53:15;;;;;;;3.00;2.80;;;;;;;;;;4975464;28;20227;-68
2023/07/08 23:55:42;;;;;;;2.63;2.53;;;;;;;;;;4975402;28;20214;-68
2023/07/08 23:58:10;;;;;;;2.33;2.22;;;;;;;;;;4975239;28;20734;-68
